createdAt,value
2019-04-14T00:00:09.589Z,34.92
2019-04-14T00:02:49.375Z,35.20
2019-04-14T00:05:30.904Z,33.60
2019-04-14T00:07:58.104Z,33.63
2019-04-14T00:10:26.810Z,32.78
2019-04-14T00:12:55.658Z,35.00
2019-04-14T00:15:32.350Z,35.73
2019-04-14T00:17:54.390Z,35.35
2019-04-14T00:20:22.856Z,36.35
2019-04-14T00:22:51.217Z,34.50
2019-04-14T00:25:19.520Z,37.70
2019-04-14T00:27:47.721Z,35.03
2019-04-14T00:30:17.017Z,34.53
2019-04-14T00:32:49.253Z,35.25
2019-04-14T00:35:42.766Z,36.73
2019-04-14T00:38:17.449Z,35.43
2019-04-14T00:40:54.001Z,37.05
2019-04-14T00:43:30.950Z,33.75
2019-04-14T00:46:10.816Z,36.17
2019-04-14T00:48:38.725Z,36.03
2019-04-14T00:51:06.933Z,37.60
2019-04-14T00:53:34.364Z,35.95
2019-04-14T00:56:01.974Z,38.95
2019-04-14T00:58:29.999Z,37.60
2019-04-14T01:00:58.018Z,36.08
2019-04-14T01:03:25.113Z,34.20
2019-04-14T01:05:52.614Z,34.85
2019-04-14T01:08:20.606Z,34.70
2019-04-14T01:10:47.746Z,35.70
2019-04-14T01:13:15.759Z,33.70
2019-04-14T01:15:51.278Z,35.08
2019-04-14T01:18:12.573Z,35.68
2019-04-14T01:20:40.566Z,36.30
2019-04-14T01:23:08.467Z,35.48
2019-04-14T01:25:36.728Z,35.92
2019-04-14T01:28:04.690Z,35.33
2019-04-14T01:30:32.666Z,34.40
2019-04-14T01:33:03.290Z,35.55
2019-04-14T01:35:31.331Z,36.10
2019-04-14T01:37:59.419Z,36.20
2019-04-14T01:40:27.096Z,36.10
2019-04-14T01:42:54.904Z,37.58
2019-04-14T01:45:23.213Z,36.38
2019-04-14T01:47:51.085Z,38.35
2019-04-14T01:50:21.289Z,37.60
2019-04-14T01:52:54.585Z,36.13
2019-04-14T01:55:44.098Z,37.85
2019-04-14T01:58:16.657Z,35.48
2019-04-14T02:00:51.187Z,39.50
2019-04-14T02:03:19.488Z,39.08
2019-04-14T02:05:49.983Z,40.58
2019-04-14T02:08:17.718Z,36.80
2019-04-14T02:10:45.601Z,40.52
2019-04-14T02:13:13.575Z,38.13
2019-04-14T02:15:42.056Z,39.27
2019-04-14T02:18:09.938Z,37.80
2019-04-14T02:20:38.190Z,38.90
2019-04-14T02:23:06.122Z,36.50
2019-04-14T02:25:33.879Z,38.35
2019-04-14T02:28:02.319Z,37.90
2019-04-14T02:30:36.623Z,38.67
2019-04-14T02:33:36.889Z,37.42
2019-04-14T02:43:29.427Z,40.00
2019-04-14T02:50:59.623Z,36.75
2019-04-14T02:53:36.696Z,35.78
2019-04-14T02:56:11.939Z,36.58
2019-04-14T03:03:35.959Z,40.75
2019-04-14T03:06:10.407Z,34.90
2019-04-14T03:08:34.266Z,35.52
2019-04-14T03:11:01.238Z,35.00
2019-04-14T03:13:40.850Z,34.48
2019-04-14T03:16:01.702Z,35.68
2019-04-14T03:18:42.821Z,37.03
2019-04-14T03:21:29.936Z,39.03
2019-04-14T03:24:07.108Z,38.38
2019-04-14T03:26:45.042Z,37.00
2019-04-14T03:29:21.315Z,36.88
2019-04-14T03:34:34.417Z,37.00
2019-04-14T03:39:15.258Z,35.80
2019-04-14T03:41:45.278Z,35.60
2019-04-14T03:44:16.755Z,35.45
2019-04-14T03:51:50.257Z,35.83
2019-04-14T03:54:10.920Z,35.50
2019-04-14T03:56:46.317Z,35.43
2019-04-14T03:59:15.346Z,33.75
2019-04-14T04:01:43.618Z,33.83
2019-04-14T04:04:12.194Z,36.63
2019-04-14T04:06:40.402Z,34.78
2019-04-14T04:09:08.582Z,33.63
2019-04-14T04:11:36.702Z,33.30
2019-04-14T04:14:05.274Z,33.67
2019-04-14T04:16:51.368Z,32.63
2019-04-14T04:19:27.858Z,31.37
2019-04-14T04:22:33.270Z,31.87
2019-04-14T04:25:09.497Z,32.33
2019-04-14T04:27:56.678Z,33.90
2019-04-14T04:30:44.973Z,34.33
2019-04-14T04:33:21.789Z,33.25
2019-04-14T04:35:54.308Z,33.38
2019-04-14T04:38:29.269Z,34.75
2019-04-14T04:40:57.955Z,32.95
2019-04-14T04:43:25.844Z,32.85
2019-04-14T04:45:54.084Z,32.90
2019-04-14T04:48:22.062Z,34.40
2019-04-14T04:50:50.010Z,32.25
2019-04-14T04:53:18.186Z,34.70
2019-04-14T04:55:48.112Z,32.08
2019-04-14T04:58:17.270Z,34.63
2019-04-14T05:00:47.343Z,31.00
2019-04-14T05:03:15.323Z,33.13
2019-04-14T05:06:09.169Z,32.23
2019-04-14T05:08:39.289Z,30.90
2019-04-14T05:11:18.707Z,30.65
2019-04-14T05:13:47.553Z,30.70
2019-04-14T05:16:15.480Z,32.20
2019-04-14T05:18:42.569Z,30.85
2019-04-14T05:21:10.402Z,32.67
2019-04-14T05:23:38.765Z,33.78
2019-04-14T05:26:06.963Z,32.28
2019-04-14T05:28:35.202Z,30.60
2019-04-14T05:31:03.349Z,30.60
2019-04-14T05:33:31.473Z,32.78
2019-04-14T05:35:59.825Z,30.80
2019-04-14T05:38:30.315Z,29.12
2019-04-14T05:40:56.223Z,32.50
2019-04-14T05:43:36.987Z,31.02
2019-04-14T05:45:52.452Z,28.70
2019-04-14T05:48:20.410Z,31.25
2019-04-14T05:50:47.496Z,28.52
2019-04-14T05:53:15.394Z,30.00
2019-04-14T05:55:43.750Z,30.55
2019-04-14T05:58:12.093Z,30.32
2019-04-14T06:00:43.726Z,29.35
2019-04-14T06:03:10.731Z,31.62
2019-04-14T06:05:38.289Z,28.95
2019-04-14T06:08:05.359Z,30.65
2019-04-14T06:10:32.843Z,27.25
2019-04-14T06:12:59.714Z,27.62
2019-04-14T06:15:26.699Z,29.98
2019-04-14T06:17:53.598Z,27.77
2019-04-14T06:20:20.613Z,31.90
2019-04-14T06:22:47.892Z,27.77
2019-04-14T06:25:14.909Z,27.65
2019-04-14T06:27:42.093Z,26.65
2019-04-14T06:30:34.178Z,28.00
2019-04-14T06:33:05.028Z,28.62
2019-04-14T06:35:49.274Z,26.40
2019-04-14T06:38:21.579Z,26.62
2019-04-14T06:40:53.623Z,26.57
2019-04-14T06:43:20.647Z,26.12
2019-04-14T06:45:47.585Z,25.20
2019-04-14T06:48:14.471Z,25.50
2019-04-14T06:50:41.644Z,28.02
2019-04-14T06:53:08.977Z,23.73
2019-04-14T06:55:35.885Z,26.17
2019-04-14T06:58:02.888Z,25.85
2019-04-14T07:00:29.783Z,24.37
2019-04-14T07:02:56.810Z,25.00
2019-04-14T07:05:23.702Z,24.40
2019-04-14T07:07:56.855Z,23.07
2019-04-14T07:10:20.270Z,22.77
2019-04-14T07:12:47.251Z,22.20
2019-04-14T07:15:14.249Z,22.90
2019-04-14T07:17:41.147Z,22.02
2019-04-14T07:20:08.310Z,19.77
2019-04-14T07:22:35.212Z,19.05
2019-04-14T07:25:02.299Z,22.13
2019-04-14T07:27:29.286Z,20.70
2019-04-14T07:30:02.377Z,18.90
2019-04-14T07:32:40.285Z,20.37
2019-04-14T07:35:19.829Z,18.90
2019-04-14T07:38:06.041Z,18.83
2019-04-14T07:40:53.058Z,20.77
2019-04-14T07:43:43.412Z,21.17
2019-04-14T07:46:29.202Z,20.82
2019-04-14T07:49:21.960Z,21.17
2019-04-14T07:52:12.187Z,19.52
2019-04-14T07:54:45.816Z,19.55
2019-04-14T07:57:22.784Z,19.10
2019-04-14T08:00:19.370Z,20.27
2019-04-14T08:02:54.617Z,18.50
2019-04-14T08:05:31.199Z,17.27
2019-04-14T08:07:59.905Z,17.90
2019-04-14T08:10:28.119Z,17.73
2019-04-14T08:12:56.518Z,17.90
2019-04-14T08:15:24.917Z,17.63
2019-04-14T08:17:53.546Z,17.07
2019-04-14T08:20:27.669Z,18.97
2019-04-14T08:22:52.052Z,17.53
2019-04-14T08:25:20.166Z,17.37
2019-04-14T08:27:48.315Z,19.17
2019-04-14T08:30:16.895Z,16.23
2019-04-14T08:32:45.256Z,17.00
2019-04-14T08:35:13.858Z,15.50
2019-04-14T08:37:42.401Z,16.40
2019-04-14T08:40:12.067Z,16.00
2019-04-14T08:42:49.794Z,17.13
2019-04-14T08:45:43.804Z,15.60
2019-04-14T08:48:20.017Z,15.20
2019-04-14T08:51:13.266Z,16.33
2019-04-14T08:53:48.030Z,17.43
2019-04-14T08:56:34.692Z,16.40
2019-04-14T08:59:10.589Z,16.57
2019-04-14T09:01:56.865Z,15.40
2019-04-14T09:04:53.391Z,17.27
2019-04-14T09:07:27.318Z,16.27
2019-04-14T09:09:59.815Z,15.63
2019-04-14T09:12:30.769Z,16.07
2019-04-14T09:14:58.674Z,15.43
2019-04-14T09:17:28.921Z,16.27
2019-04-14T09:19:57.347Z,16.97
2019-04-14T09:22:25.290Z,15.67
2019-04-14T09:24:53.426Z,16.43
2019-04-14T09:27:23.940Z,15.60
2019-04-14T09:29:52.627Z,14.00
2019-04-14T09:32:21.833Z,15.20
2019-04-14T09:34:50.495Z,14.87
2019-04-14T09:37:18.731Z,14.83
2019-04-14T09:39:47.494Z,13.43
2019-04-14T09:42:15.870Z,15.27
2019-04-14T09:44:44.779Z,14.60
2019-04-14T09:47:12.910Z,16.40
2019-04-14T09:49:43.404Z,14.93
2019-04-14T09:52:13.367Z,15.17
2019-04-14T09:54:42.157Z,15.23
2019-04-14T09:57:10.750Z,15.50
2019-04-14T09:59:39.410Z,16.80
2019-04-14T10:02:08.179Z,15.60
2019-04-14T10:04:36.401Z,14.07
2019-04-14T10:07:04.534Z,14.10
2019-04-14T10:09:32.583Z,13.83
2019-04-14T10:12:00.593Z,14.60
2019-04-14T10:14:29.179Z,14.07
2019-04-14T10:16:57.274Z,14.70
2019-04-14T10:19:25.185Z,13.43
2019-04-14T10:21:53.402Z,13.47
2019-04-14T10:24:21.373Z,14.00
2019-04-14T10:26:52.427Z,13.80
2019-04-14T10:29:20.614Z,12.90
2019-04-14T10:31:48.518Z,13.67
2019-04-14T10:34:16.426Z,14.70
2019-04-14T10:36:44.565Z,13.73
2019-04-14T10:39:15.447Z,13.40
2019-04-14T10:41:43.795Z,13.30
2019-04-14T10:44:12.084Z,14.80
2019-04-14T10:46:40.729Z,14.90
2019-04-14T10:49:09.302Z,13.70
2019-04-14T10:51:42.857Z,14.50
2019-04-14T10:54:11.218Z,14.90
2019-04-14T10:56:40.128Z,13.33
2019-04-14T10:59:08.654Z,15.07
2019-04-14T11:01:36.682Z,14.53
2019-04-14T11:04:07.813Z,15.47
2019-04-14T11:06:41.427Z,14.47
2019-04-14T11:09:13.983Z,12.83
2019-04-14T11:11:42.731Z,13.50
2019-04-14T11:14:11.151Z,13.23
2019-04-14T11:16:39.157Z,14.27
2019-04-14T11:19:07.535Z,14.27
2019-04-14T11:21:42.867Z,13.90
2019-04-14T11:24:09.457Z,13.10
2019-04-14T11:26:38.108Z,14.13
2019-04-14T11:29:09.394Z,14.10
2019-04-14T11:31:52.275Z,13.03
2019-04-14T11:34:22.064Z,12.83
2019-04-14T11:37:11.166Z,12.10
2019-04-14T11:39:39.917Z,12.73
2019-04-14T11:42:08.357Z,13.17
2019-04-14T11:44:42.776Z,13.43
2019-04-14T11:47:11.559Z,13.37
2019-04-14T11:49:39.927Z,12.37
2019-04-14T11:52:08.555Z,14.83
2019-04-14T11:54:37.586Z,14.50
2019-04-14T11:57:06.326Z,13.80
2019-04-14T11:59:49.128Z,14.83
2019-04-14T12:02:26.209Z,13.80
2019-04-14T12:05:10.497Z,14.07
2019-04-14T12:07:46.797Z,13.97
2019-04-14T12:10:16.900Z,14.90
2019-04-14T12:12:46.414Z,14.23
2019-04-14T12:15:16.646Z,13.57
2019-04-14T12:17:45.316Z,15.50
2019-04-14T12:20:13.770Z,14.50
2019-04-14T12:22:41.637Z,15.80
2019-04-14T12:25:09.848Z,16.90
2019-04-14T12:27:37.736Z,15.37
2019-04-14T12:30:13.593Z,16.20
2019-04-14T12:32:42.113Z,15.97
2019-04-14T12:35:12.327Z,16.93
2019-04-14T12:37:40.205Z,15.70
2019-04-14T12:40:08.451Z,16.20
2019-04-14T12:43:04.981Z,15.57
2019-04-14T12:46:06.132Z,14.93
2019-04-14T12:48:52.990Z,13.60
2019-04-14T12:51:26.955Z,13.87
2019-04-14T12:53:54.113Z,15.90
2019-04-14T12:56:24.290Z,15.27
2019-04-14T12:59:17.651Z,13.93
2019-04-14T13:01:52.899Z,14.90
2019-04-14T13:04:21.085Z,15.90
2019-04-14T13:06:51.053Z,15.23
2019-04-14T13:09:21.128Z,15.00
2019-04-14T13:11:49.526Z,16.27
2019-04-14T13:14:17.572Z,15.30
2019-04-14T13:16:45.986Z,14.80
2019-04-14T13:19:14.807Z,13.67
2019-04-14T13:21:43.239Z,15.80
2019-04-14T13:24:13.153Z,17.83
2019-04-14T13:26:41.329Z,15.17
2019-04-14T13:29:09.990Z,15.97
2019-04-14T13:31:37.938Z,15.90
2019-04-14T13:34:05.930Z,15.87
2019-04-14T13:36:33.922Z,17.20
2019-04-14T13:39:02.026Z,16.47
2019-04-14T13:41:34.313Z,16.37
2019-04-14T13:44:02.338Z,16.03
2019-04-14T13:46:30.470Z,14.80
2019-04-14T13:48:58.488Z,15.13
2019-04-14T13:51:26.443Z,15.30
2019-04-14T13:53:54.445Z,14.10
2019-04-14T13:56:22.577Z,16.10
2019-04-14T13:58:52.920Z,15.80
2019-04-14T14:01:22.249Z,15.10
2019-04-14T14:03:50.159Z,15.00
2019-04-14T14:06:18.046Z,15.10
2019-04-14T14:08:46.050Z,14.93
2019-04-14T14:11:33.694Z,16.23
2019-04-14T14:14:27.483Z,14.70
2019-04-14T14:17:17.416Z,15.33
2019-04-14T14:19:52.591Z,15.30
2019-04-14T14:22:31.006Z,15.00
2019-04-14T14:25:03.896Z,15.57
2019-04-14T14:27:31.881Z,16.07
2019-04-14T14:30:00.050Z,15.47
2019-04-14T14:32:30.763Z,14.60
2019-04-14T14:34:59.006Z,15.83
2019-04-14T14:37:26.937Z,15.47
2019-04-14T14:39:54.842Z,15.67
2019-04-14T14:42:23.397Z,14.90
2019-04-14T14:44:58.816Z,16.30
2019-04-14T14:47:28.501Z,15.37
2019-04-14T14:50:16.326Z,14.83
2019-04-14T14:52:44.450Z,14.43
2019-04-14T14:55:12.742Z,16.93
2019-04-14T14:57:40.756Z,14.80
2019-04-14T15:00:17.502Z,15.37
2019-04-14T15:02:46.212Z,15.13
2019-04-14T15:05:14.530Z,15.03
2019-04-14T15:07:43.519Z,16.63
2019-04-14T15:10:12.143Z,16.47
2019-04-14T15:12:40.323Z,15.67
2019-04-14T15:15:08.487Z,13.10
2019-04-14T15:17:37.130Z,14.97
2019-04-14T15:20:05.482Z,15.63
2019-04-14T15:22:33.748Z,15.60
2019-04-14T15:25:02.127Z,15.53
2019-04-14T15:27:30.687Z,15.80
2019-04-14T15:29:59.315Z,15.77
2019-04-14T15:32:28.057Z,14.80
2019-04-14T15:34:56.334Z,14.70
2019-04-14T15:37:24.714Z,14.53
2019-04-14T15:39:53.359Z,14.87
2019-04-14T15:42:21.750Z,15.20
2019-04-14T15:44:49.900Z,15.00
2019-04-14T15:47:18.469Z,14.10
2019-04-14T15:49:46.743Z,14.90
2019-04-14T15:52:16.097Z,13.43
2019-04-14T15:54:44.407Z,14.60
2019-04-14T15:57:44.310Z,13.23
2019-04-14T16:00:30.849Z,14.53
2019-04-14T16:03:28.101Z,14.33
2019-04-14T16:06:24.978Z,13.77
2019-04-14T16:08:56.728Z,13.83
2019-04-14T16:11:39.921Z,13.73
2019-04-14T16:14:24.614Z,14.20
2019-04-14T16:17:10.177Z,14.40
2019-04-14T16:19:44.736Z,13.53
2019-04-14T16:22:14.699Z,16.40
2019-04-14T16:24:43.663Z,13.07
2019-04-14T16:27:40.253Z,14.33
2019-04-14T16:30:19.706Z,13.33
2019-04-14T16:33:23.069Z,11.53
2019-04-14T16:35:50.550Z,12.63
2019-04-14T16:38:18.033Z,12.87
2019-04-14T16:40:45.517Z,13.17
2019-04-14T16:43:12.651Z,13.13
2019-04-14T16:45:43.961Z,11.77
2019-04-14T16:48:12.443Z,13.77
2019-04-14T16:50:41.185Z,12.17
2019-04-14T16:53:16.385Z,12.30
2019-04-14T16:56:00.208Z,12.77
2019-04-14T16:58:35.649Z,11.70
2019-04-14T17:01:08.023Z,11.70
2019-04-14T17:03:36.406Z,11.00
2019-04-14T17:06:05.050Z,12.07
2019-04-14T17:08:33.492Z,13.33
2019-04-14T17:11:01.630Z,11.03
2019-04-14T17:13:35.907Z,12.50
2019-04-14T17:16:28.921Z,11.40
2019-04-14T17:19:01.567Z,11.67
2019-04-14T17:21:33.299Z,12.50
2019-04-14T17:24:24.006Z,13.30
2019-04-14T17:26:59.329Z,12.07
2019-04-14T17:29:37.203Z,11.77
2019-04-14T17:32:20.975Z,12.63
2019-04-14T17:34:53.900Z,11.90
2019-04-14T17:37:43.327Z,12.30
2019-04-14T17:40:32.715Z,12.30
2019-04-14T17:43:13.777Z,12.10
2019-04-14T17:45:59.990Z,11.60
2019-04-14T17:48:46.201Z,12.50
2019-04-14T17:51:22.599Z,12.13
2019-04-14T17:54:08.445Z,12.00
2019-04-14T17:56:57.837Z,11.37
2019-04-14T17:59:38.254Z,11.80
2019-04-14T18:02:17.802Z,12.60
2019-04-14T18:05:06.533Z,13.20
2019-04-14T18:07:42.386Z,11.47
2019-04-14T18:10:21.045Z,12.97
2019-04-14T18:13:00.445Z,10.90
2019-04-14T18:15:32.449Z,11.85
2019-04-14T18:18:31.004Z,12.75
2019-04-14T18:21:02.299Z,10.75
2019-04-14T18:23:30.389Z,12.03
2019-04-14T18:25:58.842Z,11.70
2019-04-14T18:28:44.697Z,13.05
2019-04-14T18:31:35.012Z,11.95
2019-04-14T18:34:33.282Z,12.97
2019-04-14T18:37:16.544Z,11.90
2019-04-14T18:40:07.120Z,12.17
2019-04-14T18:42:39.003Z,11.33
2019-04-14T18:45:21.411Z,12.28
2019-04-14T18:47:56.575Z,10.37
2019-04-14T18:50:47.934Z,12.63
2019-04-14T18:53:19.761Z,11.53
2019-04-14T18:56:07.472Z,12.18
2019-04-14T18:58:42.263Z,10.35
2019-04-14T19:01:13.808Z,9.10
2019-04-14T19:03:41.802Z,8.73
2019-04-14T19:06:09.712Z,9.33
2019-04-14T19:08:37.748Z,8.85
2019-04-14T19:11:17.969Z,6.58
2019-04-14T19:13:46.337Z,8.50
2019-04-14T19:16:22.311Z,8.75
2019-04-14T19:18:53.702Z,9.75
2019-04-14T19:21:23.604Z,9.10
2019-04-14T19:23:51.533Z,9.48
2019-04-14T19:26:19.672Z,9.30
2019-04-14T19:28:46.553Z,9.35
2019-04-14T19:31:13.559Z,9.33
2019-04-14T19:33:40.738Z,9.65
2019-04-14T19:36:07.750Z,8.53
2019-04-14T19:38:34.653Z,9.53
2019-04-14T19:41:01.598Z,9.05
2019-04-14T19:43:28.688Z,9.45
2019-04-14T19:45:56.653Z,10.75
2019-04-14T19:48:23.954Z,9.98
2019-04-14T19:50:51.042Z,9.15
2019-04-14T19:53:18.083Z,9.95
2019-04-14T19:55:45.042Z,10.05
2019-04-14T19:58:13.154Z,11.00
2019-04-14T20:00:40.141Z,10.15
2019-04-14T20:03:07.581Z,9.75
2019-04-14T20:05:34.528Z,10.60
2019-04-14T20:08:01.845Z,10.30
2019-04-14T20:10:28.847Z,11.68
2019-04-14T20:12:55.948Z,11.35
2019-04-14T20:15:26.310Z,10.48
2019-04-14T20:18:18.926Z,11.20
2019-04-14T20:21:03.928Z,10.93
2019-04-14T20:23:38.467Z,10.20
2019-04-14T20:26:23.677Z,8.55
2019-04-14T20:29:01.000Z,10.35
2019-04-14T20:31:35.641Z,11.18
2019-04-14T20:34:02.682Z,10.53
2019-04-14T20:36:29.711Z,11.40
2019-04-14T20:38:58.543Z,10.30
2019-04-14T20:41:26.441Z,11.93
2019-04-14T20:43:54.340Z,11.00
2019-04-14T20:46:22.226Z,11.00
2019-04-14T20:48:50.137Z,10.45
2019-04-14T20:51:18.087Z,10.35
2019-04-14T20:53:46.878Z,9.90
2019-04-14T20:56:14.931Z,10.60
2019-04-14T20:58:43.077Z,10.40
2019-04-14T21:01:12.229Z,10.18
2019-04-14T21:03:59.876Z,9.70
2019-04-14T21:06:50.675Z,9.63
2019-04-14T21:09:46.980Z,9.03
2019-04-14T21:12:30.589Z,9.08
2019-04-14T21:15:27.371Z,8.10
2019-04-14T21:18:07.523Z,8.85
2019-04-14T21:21:09.340Z,8.88
2019-04-14T21:23:56.273Z,9.95
2019-04-14T21:26:45.250Z,8.43
2019-04-14T21:29:40.738Z,7.90
2019-04-14T21:32:20.171Z,8.33
2019-04-14T21:35:04.966Z,8.75
2019-04-14T21:37:39.638Z,8.68
2019-04-14T21:40:38.335Z,8.83
2019-04-14T21:43:05.472Z,8.43
2019-04-14T21:45:32.976Z,8.90
2019-04-14T21:48:00.076Z,9.45
2019-04-14T21:50:26.993Z,9.75
2019-04-14T21:52:53.870Z,8.45
2019-04-14T21:55:20.806Z,9.60
2019-04-14T21:58:12.031Z,7.75
2019-04-14T22:01:41.606Z,9.85
2019-04-14T22:04:19.429Z,9.40
2019-04-14T22:06:46.899Z,9.05
2019-04-14T22:09:20.235Z,9.63
2019-04-14T22:11:47.126Z,8.88
2019-04-14T22:14:14.336Z,8.48
2019-04-14T22:16:41.382Z,9.28
2019-04-14T22:19:08.481Z,9.83
2019-04-14T22:21:35.474Z,9.10
2019-04-14T22:24:03.241Z,9.10
2019-04-14T22:26:30.118Z,8.88
2019-04-14T22:28:57.261Z,9.23
2019-04-14T22:31:24.268Z,9.93
2019-04-14T22:33:51.233Z,9.78
2019-04-14T22:36:18.574Z,9.70
2019-04-14T22:38:45.581Z,10.68
2019-04-14T22:41:12.575Z,10.18
2019-04-14T22:43:39.461Z,10.38
2019-04-14T22:46:06.355Z,11.28
2019-04-14T22:48:33.250Z,10.78
2019-04-14T22:51:00.230Z,10.30
2019-04-14T22:53:27.113Z,10.63
2019-04-14T22:55:54.247Z,11.03
2019-04-14T22:58:21.619Z,10.82
2019-04-14T23:00:53.044Z,11.80
2019-04-14T23:03:43.654Z,11.08
2019-04-14T23:06:18.115Z,11.90
2019-04-14T23:08:52.831Z,11.40
2019-04-14T23:11:34.390Z,10.55
2019-04-14T23:14:25.055Z,11.03
2019-04-14T23:17:12.724Z,11.30
2019-04-14T23:19:45.328Z,12.18
2019-04-14T23:22:27.019Z,11.95
2019-04-14T23:24:54.015Z,12.65
2019-04-14T23:27:20.889Z,12.75
2019-04-14T23:29:47.789Z,12.23
2019-04-14T23:32:15.598Z,12.30
2019-04-14T23:34:44.530Z,12.43
2019-04-14T23:37:11.930Z,13.22
2019-04-14T23:39:40.066Z,11.85
2019-04-14T23:42:09.221Z,12.45
2019-04-14T23:44:37.946Z,13.22
2019-04-14T23:47:06.558Z,14.55
2019-04-14T23:49:35.027Z,12.78
2019-04-14T23:52:03.396Z,12.53
2019-04-14T23:54:33.018Z,12.93
2019-04-14T23:57:05.942Z,13.88
2019-04-14T23:59:32.824Z,12.73
